BCS490 LSZH-EPWA
Flight info
| Callsign | BCS490 |
|---|---|
| Flight time | 1h 25m |
| Altitude | 35000 |
| Route | DEGES Z2 XEBIX N871 TULSI DCT MEBEK DCT NENUM N871 BEPAS DCT ELVOT DCT OKENO Q277 GOGUS DCT AGAVA |
| Aircraft | A306/H-SDE3FGHIRWY/LB1 |
Departure
| Time | 2026-05-05 20:56 |
|---|---|
| Airport | Zürich Airport (LSZH) |
Arrival
| Time | 2026-05-05 22:21 |
|---|---|
| Airport | Warsaw Chopin Airport (EPWA) |
| Time | Latitude | Longitude | Altitude | Speed | Heading |
|---|---|---|---|---|---|
| 2026-05-05 20:40 | 47.44716 | 8.56237 | 1409 ft | 0 kts | 64° |
| 2026-05-05 20:44 | 47.44711 | 8.56223 | 1413 ft | 4 kts | 63° |
| 2026-05-05 20:44 | 47.44699 | 8.56188 | 1413 ft | 4 kts | 58° |
| 2026-05-05 20:45 | 47.44663 | 8.56133 | 1411 ft | 4 kts | 6° |
| 2026-05-05 20:45 | 47.44653 | 8.56134 | 1412 ft | 2 kts | 335° |
| 2026-05-05 20:47 | 47.44672 | 8.56120 | 1413 ft | 8 kts | 335° |
| 2026-05-05 20:47 | 47.44748 | 8.56068 | 1412 ft | 17 kts | 335° |
| 2026-05-05 20:47 | 47.44876 | 8.55979 | 1413 ft | 22 kts | 335° |
| 2026-05-05 20:48 | 47.44949 | 8.55827 | 1409 ft | 18 kts | 280° |
| 2026-05-05 20:48 | 47.45010 | 8.55729 | 1415 ft | 13 kts | 333° |
| 2026-05-05 20:48 | 47.45118 | 8.55659 | 1418 ft | 18 kts | 336° |
| 2026-05-05 20:48 | 47.45227 | 8.55588 | 1418 ft | 16 kts | 336° |
| 2026-05-05 20:49 | 47.45329 | 8.55532 | 1417 ft | 17 kts | 345° |
| 2026-05-05 20:49 | 47.45460 | 8.55453 | 1414 ft | 22 kts | 335° |
| 2026-05-05 20:49 | 47.45598 | 8.55360 | 1415 ft | 22 kts | 335° |
| 2026-05-05 20:49 | 47.45735 | 8.55279 | 1412 ft | 21 kts | 340° |
| 2026-05-05 20:50 | 47.45863 | 8.55220 | 1406 ft | 14 kts | 17° |
| 2026-05-05 20:50 | 47.45885 | 8.55362 | 1409 ft | 19 kts | 96° |
| 2026-05-05 20:50 | 47.45871 | 8.55563 | 1416 ft | 18 kts | 95° |
| 2026-05-05 20:50 | 47.45861 | 8.55725 | 1419 ft | 14 kts | 96° |
| 2026-05-05 20:51 | 47.45852 | 8.55852 | 1415 ft | 11 kts | 96° |
| 2026-05-05 20:51 | 47.45904 | 8.55935 | 1419 ft | 18 kts | 19° |
| 2026-05-05 20:51 | 47.46009 | 8.56063 | 1419 ft | 19 kts | 81° |
| 2026-05-05 20:51 | 47.46005 | 8.56239 | 1421 ft | 15 kts | 92° |
| 2026-05-05 20:52 | 47.46026 | 8.56316 | 1423 ft | 0 kts | 41° |
| 2026-05-05 20:54 | 47.46027 | 8.56316 | 1423 ft | 2 kts | 41° |
| 2026-05-05 20:55 | 47.46072 | 8.56359 | 1421 ft | 9 kts | 32° |
| 2026-05-05 20:55 | 47.46124 | 8.56404 | 1422 ft | 8 kts | 25° |
| 2026-05-05 20:55 | 47.46168 | 8.56395 | 1423 ft | 5 kts | 315° |
| 2026-05-05 20:55 | 47.46271 | 8.56251 | 1417 ft | 51 kts | 317° |
| 2026-05-05 20:56 | 47.46691 | 8.55679 | 1410 ft | 111 kts | 317° |
| 2026-05-05 20:56 | 47.47382 | 8.54734 | 1402 ft | 158 kts | 317° |
| 2026-05-05 20:56 | 47.48290 | 8.53543 | 1675 ft | 180 kts | 319° |
| 2026-05-05 20:56 | 47.49216 | 8.52329 | 2446 ft | 176 kts | 316° |
| 2026-05-05 20:57 | 47.50208 | 8.51216 | 3046 ft | 189 kts | 322° |
| 2026-05-05 20:57 | 47.51386 | 8.50139 | 3524 ft | 206 kts | 322° |
| 2026-05-05 20:57 | 47.52495 | 8.48778 | 4159 ft | 208 kts | 306° |
| 2026-05-05 20:57 | 47.53234 | 8.46967 | 4919 ft | 205 kts | 286° |
| 2026-05-05 20:58 | 47.53503 | 8.44904 | 5613 ft | 208 kts | 268° |
| 2026-05-05 20:58 | 47.53260 | 8.42765 | 6386 ft | 215 kts | 248° |
| 2026-05-05 20:58 | 47.52593 | 8.40774 | 7225 ft | 219 kts | 237° |
| 2026-05-05 20:58 | 47.51592 | 8.39068 | 8147 ft | 222 kts | 219° |
| 2026-05-05 20:59 | 47.50216 | 8.37954 | 8955 ft | 233 kts | 205° |
| 2026-05-05 20:59 | 47.48589 | 8.37249 | 9388 ft | 256 kts | 192° |
| 2026-05-05 20:59 | 47.46755 | 8.37080 | 9955 ft | 272 kts | 177° |
| 2026-05-05 20:59 | 47.44888 | 8.37841 | 10464 ft | 292 kts | 155° |
| 2026-05-05 21:00 | 47.43341 | 8.39952 | 10730 ft | 321 kts | 126° |
| 2026-05-05 21:00 | 47.42575 | 8.43160 | 11004 ft | 347 kts | 99° |
| 2026-05-05 21:00 | 47.42548 | 8.46825 | 11301 ft | 365 kts | 90° |
| 2026-05-05 21:00 | 47.42623 | 8.50652 | 11569 ft | 380 kts | 91° |
| 2026-05-05 21:01 | 47.42647 | 8.54604 | 11998 ft | 389 kts | 92° |
| 2026-05-05 21:01 | 47.42624 | 8.58618 | 12511 ft | 394 kts | 93° |
| 2026-05-05 21:01 | 47.42571 | 8.62695 | 13075 ft | 399 kts | 93° |
| 2026-05-05 21:01 | 47.42501 | 8.66801 | 13643 ft | 403 kts | 94° |
| 2026-05-05 21:02 | 47.42419 | 8.70960 | 14167 ft | 407 kts | 94° |
| 2026-05-05 21:02 | 47.42332 | 8.75144 | 14727 ft | 409 kts | 94° |
| 2026-05-05 21:02 | 47.42242 | 8.79299 | 15292 ft | 410 kts | 94° |
| 2026-05-05 21:02 | 47.42148 | 8.83519 | 15875 ft | 412 kts | 94° |
| 2026-05-05 21:03 | 47.42050 | 8.87764 | 16438 ft | 415 kts | 94° |
| 2026-05-05 21:03 | 47.41950 | 8.92026 | 17003 ft | 417 kts | 94° |
| 2026-05-05 21:03 | 47.41846 | 8.96324 | 17562 ft | 420 kts | 94° |
| 2026-05-05 21:03 | 47.41742 | 9.00647 | 18079 ft | 423 kts | 94° |
| 2026-05-05 21:04 | 47.41636 | 9.04993 | 18534 ft | 425 kts | 95° |
| 2026-05-05 21:04 | 47.41530 | 9.09321 | 18968 ft | 428 kts | 95° |
| 2026-05-05 21:04 | 47.41419 | 9.13732 | 19381 ft | 431 kts | 95° |
| 2026-05-05 21:04 | 47.41331 | 9.18170 | 19790 ft | 435 kts | 92° |
| 2026-05-05 21:05 | 47.41591 | 9.22644 | 20135 ft | 442 kts | 84° |
| 2026-05-05 21:05 | 47.42130 | 9.27134 | 20494 ft | 447 kts | 81° |
| 2026-05-05 21:05 | 47.42806 | 9.31633 | 20903 ft | 450 kts | 79° |
| 2026-05-05 21:05 | 47.43535 | 9.36123 | 21361 ft | 451 kts | 78° |
| 2026-05-05 21:06 | 47.44277 | 9.40648 | 21751 ft | 454 kts | 79° |
| 2026-05-05 21:06 | 47.45008 | 9.45197 | 22100 ft | 457 kts | 79° |
| 2026-05-05 21:06 | 47.45726 | 9.49787 | 22448 ft | 460 kts | 79° |
| 2026-05-05 21:06 | 47.46432 | 9.54417 | 22786 ft | 463 kts | 80° |
| 2026-05-05 21:07 | 47.46927 | 9.59114 | 23139 ft | 463 kts | 88° |
| 2026-05-05 21:07 | 47.46996 | 9.63856 | 23454 ft | 463 kts | 95° |
| 2026-05-05 21:07 | 47.46864 | 9.68640 | 23607 ft | 468 kts | 97° |
| 2026-05-05 21:07 | 47.46636 | 9.73447 | 23881 ft | 470 kts | 98° |
| 2026-05-05 21:08 | 47.46362 | 9.78264 | 24187 ft | 471 kts | 99° |
| 2026-05-05 21:08 | 47.46069 | 9.83095 | 24474 ft | 473 kts | 99° |
| 2026-05-05 21:08 | 47.45774 | 9.87950 | 24732 ft | 475 kts | 99° |
| 2026-05-05 21:08 | 47.45483 | 9.92823 | 25004 ft | 477 kts | 99° |
| 2026-05-05 21:09 | 47.45195 | 9.97719 | 25284 ft | 479 kts | 99° |
| 2026-05-05 21:09 | 47.44910 | 10.02640 | 25572 ft | 481 kts | 99° |
| 2026-05-05 21:09 | 47.44625 | 10.07579 | 25746 ft | 484 kts | 99° |
| 2026-05-05 21:09 | 47.44335 | 10.12554 | 25915 ft | 487 kts | 99° |
| 2026-05-05 21:10 | 47.43988 | 10.17530 | 26187 ft | 486 kts | 103° |
| 2026-05-05 21:10 | 47.43430 | 10.22448 | 26420 ft | 487 kts | 104° |
| 2026-05-05 21:10 | 47.42815 | 10.27369 | 26653 ft | 488 kts | 105° |
| 2026-05-05 21:10 | 47.42163 | 10.32293 | 26867 ft | 490 kts | 106° |
| 2026-05-05 21:11 | 47.41500 | 10.37169 | 27105 ft | 491 kts | 106° |
| 2026-05-05 21:11 | 47.40942 | 10.42159 | 27312 ft | 497 kts | 100° |
| 2026-05-05 21:11 | 47.40841 | 10.47281 | 27518 ft | 503 kts | 91° |
| 2026-05-05 21:11 | 47.41311 | 10.52423 | 27770 ft | 508 kts | 80° |
| 2026-05-05 21:12 | 47.42283 | 10.57450 | 28066 ft | 510 kts | 75° |
| 2026-05-05 21:12 | 47.43419 | 10.62410 | 28387 ft | 510 kts | 73° |
| 2026-05-05 21:12 | 47.44632 | 10.67336 | 28684 ft | 510 kts | 72° |
| 2026-05-05 21:12 | 47.45870 | 10.72242 | 28972 ft | 510 kts | 72° |
| 2026-05-05 21:13 | 47.47107 | 10.77147 | 29266 ft | 509 kts | 72° |
| 2026-05-05 21:13 | 47.48327 | 10.82038 | 29676 ft | 506 kts | 72° |
| 2026-05-05 21:13 | 47.49534 | 10.86942 | 29879 ft | 508 kts | 73° |
| 2026-05-05 21:13 | 47.50730 | 10.91861 | 30018 ft | 511 kts | 73° |
| 2026-05-05 21:14 | 47.51923 | 10.96806 | 30352 ft | 508 kts | 73° |
| 2026-05-05 21:14 | 47.53106 | 11.01716 | 30663 ft | 506 kts | 73° |
| 2026-05-05 21:14 | 47.54288 | 11.06640 | 30836 ft | 508 kts | 73° |
| 2026-05-05 21:14 | 47.55469 | 11.11572 | 31058 ft | 508 kts | 73° |
| 2026-05-05 21:15 | 47.56648 | 11.16505 | 31277 ft | 509 kts | 73° |
| 2026-05-05 21:15 | 47.57828 | 11.21449 | 31494 ft | 510 kts | 73° |
| 2026-05-05 21:15 | 47.59011 | 11.26403 | 31757 ft | 510 kts | 73° |
| 2026-05-05 21:15 | 47.60192 | 11.31355 | 32007 ft | 510 kts | 73° |
| 2026-05-05 21:16 | 47.61371 | 11.36316 | 32254 ft | 510 kts | 73° |
| 2026-05-05 21:16 | 47.62532 | 11.41290 | 32480 ft | 510 kts | 74° |
| 2026-05-05 21:16 | 47.63610 | 11.46291 | 32769 ft | 509 kts | 75° |
| 2026-05-05 21:16 | 47.64636 | 11.51309 | 33034 ft | 509 kts | 76° |
| 2026-05-05 21:17 | 47.65644 | 11.56340 | 33336 ft | 508 kts | 76° |
| 2026-05-05 21:17 | 47.66645 | 11.61355 | 33608 ft | 507 kts | 76° |
| 2026-05-05 21:17 | 47.67636 | 11.66304 | 33853 ft | 507 kts | 76° |
| 2026-05-05 21:17 | 47.68646 | 11.71312 | 34081 ft | 507 kts | 75° |
| 2026-05-05 21:18 | 47.69952 | 11.76173 | 34283 ft | 510 kts | 65° |
| 2026-05-05 21:18 | 47.71818 | 11.80648 | 34516 ft | 511 kts | 53° |
| 2026-05-05 21:18 | 47.74155 | 11.84614 | 34764 ft | 510 kts | 47° |
| 2026-05-05 21:18 | 47.76624 | 11.88406 | 34827 ft | 510 kts | 45° |
| 2026-05-05 21:19 | 47.81698 | 11.95743 | 34867 ft | 508 kts | 44° |
| 2026-05-05 21:19 | 47.86799 | 12.03028 | 34858 ft | 508 kts | 44° |
| 2026-05-05 21:20 | 47.91864 | 12.10354 | 34858 ft | 508 kts | 45° |
| 2026-05-05 21:20 | 47.96908 | 12.17723 | 34862 ft | 508 kts | 45° |
| 2026-05-05 21:21 | 48.01098 | 12.23872 | 34869 ft | 508 kts | 45° |
| 2026-05-05 21:21 | 48.06129 | 12.31274 | 34859 ft | 508 kts | 45° |
| 2026-05-05 21:22 | 48.11158 | 12.38692 | 34855 ft | 508 kts | 45° |
| 2026-05-05 21:22 | 48.16186 | 12.46127 | 34847 ft | 508 kts | 45° |
| 2026-05-05 21:23 | 48.21208 | 12.53576 | 34863 ft | 508 kts | 45° |
| 2026-05-05 21:23 | 48.26497 | 12.60599 | 34862 ft | 508 kts | 40° |
| 2026-05-05 21:24 | 48.31921 | 12.67394 | 34860 ft | 508 kts | 40° |
| 2026-05-05 21:24 | 48.37376 | 12.74157 | 34846 ft | 508 kts | 40° |
| 2026-05-05 21:25 | 48.42818 | 12.80925 | 34846 ft | 507 kts | 40° |
| 2026-05-05 21:25 | 48.48251 | 12.87714 | 34841 ft | 507 kts | 40° |
| 2026-05-05 21:26 | 48.53634 | 12.94597 | 34837 ft | 507 kts | 45° |
| 2026-05-05 21:26 | 48.58626 | 13.02099 | 34839 ft | 506 kts | 46° |
| 2026-05-05 21:27 | 48.63540 | 13.09704 | 34852 ft | 505 kts | 47° |
| 2026-05-05 21:27 | 48.68421 | 13.17328 | 34836 ft | 503 kts | 47° |
| 2026-05-05 21:28 | 48.73280 | 13.24930 | 34839 ft | 501 kts | 47° |
| 2026-05-05 21:28 | 48.78127 | 13.32524 | 34835 ft | 501 kts | 47° |
| 2026-05-05 21:29 | 48.82965 | 13.40120 | 34836 ft | 500 kts | 47° |
| 2026-05-05 21:29 | 48.87790 | 13.47720 | 34833 ft | 500 kts | 47° |
| 2026-05-05 21:30 | 48.92570 | 13.55304 | 34826 ft | 500 kts | 47° |
| 2026-05-05 21:30 | 48.97353 | 13.62987 | 34830 ft | 500 kts | 48° |
| 2026-05-05 21:31 | 49.02130 | 13.70692 | 34821 ft | 500 kts | 48° |
| 2026-05-05 21:31 | 49.06905 | 13.78409 | 34814 ft | 500 kts | 48° |
| 2026-05-05 21:32 | 49.11665 | 13.86122 | 34817 ft | 498 kts | 47° |
| 2026-05-05 21:32 | 49.16401 | 13.93817 | 34807 ft | 497 kts | 47° |
| 2026-05-05 21:33 | 49.21125 | 14.01514 | 34801 ft | 497 kts | 47° |
| 2026-05-05 21:33 | 49.25844 | 14.09227 | 34801 ft | 497 kts | 47° |
| 2026-05-05 21:34 | 49.30560 | 14.16958 | 34797 ft | 497 kts | 47° |
| 2026-05-05 21:34 | 49.35269 | 14.24700 | 34791 ft | 496 kts | 47° |
| 2026-05-05 21:35 | 49.39963 | 14.32443 | 34784 ft | 495 kts | 48° |
| 2026-05-05 21:35 | 49.44649 | 14.40195 | 34779 ft | 495 kts | 48° |
| 2026-05-05 21:36 | 49.49326 | 14.47955 | 34765 ft | 495 kts | 47° |
| 2026-05-05 21:36 | 49.53954 | 14.55658 | 34765 ft | 492 kts | 47° |
| 2026-05-05 21:37 | 49.58594 | 14.63403 | 34765 ft | 492 kts | 47° |
| 2026-05-05 21:37 | 49.63229 | 14.71164 | 34766 ft | 492 kts | 48° |
| 2026-05-05 21:38 | 49.67858 | 14.78938 | 34760 ft | 492 kts | 48° |
| 2026-05-05 21:38 | 49.72479 | 14.86722 | 34760 ft | 491 kts | 48° |
| 2026-05-05 21:39 | 49.77090 | 14.94512 | 34758 ft | 491 kts | 48° |
| 2026-05-05 21:39 | 49.81699 | 15.02321 | 34755 ft | 491 kts | 48° |
| 2026-05-05 21:40 | 49.86300 | 15.10144 | 34751 ft | 491 kts | 48° |
| 2026-05-05 21:40 | 49.90894 | 15.17978 | 34746 ft | 490 kts | 48° |
| 2026-05-05 21:41 | 49.95465 | 15.25795 | 34747 ft | 488 kts | 48° |
| 2026-05-05 21:41 | 50.00025 | 15.33617 | 34744 ft | 488 kts | 48° |
| 2026-05-05 21:42 | 50.04576 | 15.41450 | 34746 ft | 488 kts | 48° |
| 2026-05-05 21:42 | 50.09125 | 15.49301 | 34746 ft | 488 kts | 48° |
| 2026-05-05 21:43 | 50.13667 | 15.57164 | 34748 ft | 488 kts | 49° |
| 2026-05-05 21:43 | 50.18204 | 15.65043 | 34749 ft | 488 kts | 49° |
| 2026-05-05 21:44 | 50.22738 | 15.72943 | 34748 ft | 488 kts | 49° |
| 2026-05-05 21:44 | 50.27268 | 15.80858 | 34753 ft | 488 kts | 49° |
| 2026-05-05 21:45 | 50.31777 | 15.88761 | 34756 ft | 486 kts | 49° |
| 2026-05-05 21:45 | 50.36265 | 15.96651 | 34768 ft | 485 kts | 49° |
| 2026-05-05 21:46 | 50.40746 | 16.04554 | 34770 ft | 485 kts | 49° |
| 2026-05-05 21:46 | 50.45216 | 16.12463 | 34784 ft | 485 kts | 49° |
| 2026-05-05 21:47 | 50.49678 | 16.20381 | 34790 ft | 483 kts | 49° |
| 2026-05-05 21:47 | 50.54124 | 16.28297 | 34790 ft | 483 kts | 49° |
| 2026-05-05 21:48 | 50.58564 | 16.36223 | 34794 ft | 483 kts | 49° |
| 2026-05-05 21:48 | 50.62348 | 16.44819 | 34798 ft | 481 kts | 63° |
| 2026-05-05 21:49 | 50.65262 | 16.54375 | 34783 ft | 481 kts | 66° |
| 2026-05-05 21:49 | 50.68043 | 16.63877 | 34795 ft | 481 kts | 66° |
| 2026-05-05 21:50 | 50.70827 | 16.73460 | 34793 ft | 480 kts | 66° |
| 2026-05-05 21:50 | 50.73602 | 16.83055 | 34794 ft | 480 kts | 66° |
| 2026-05-05 21:51 | 50.76368 | 16.92655 | 34786 ft | 480 kts | 66° |
| 2026-05-05 21:51 | 50.79124 | 17.02262 | 34785 ft | 480 kts | 66° |
| 2026-05-05 21:52 | 50.83249 | 17.16715 | 34781 ft | 481 kts | 66° |
| 2026-05-05 21:53 | 50.85988 | 17.26361 | 34782 ft | 481 kts | 66° |
| 2026-05-05 21:53 | 50.88723 | 17.36029 | 34781 ft | 481 kts | 66° |
| 2026-05-05 21:54 | 50.91448 | 17.45703 | 34775 ft | 481 kts | 66° |
| 2026-05-05 21:54 | 50.94164 | 17.55388 | 34777 ft | 481 kts | 66° |
| 2026-05-05 21:55 | 50.96872 | 17.65081 | 34779 ft | 481 kts | 66° |
| 2026-05-05 21:55 | 50.99578 | 17.74807 | 34773 ft | 482 kts | 66° |
| 2026-05-05 21:56 | 51.02275 | 17.84545 | 34783 ft | 482 kts | 66° |
| 2026-05-05 21:56 | 51.04966 | 17.94298 | 34782 ft | 482 kts | 66° |
| 2026-05-05 21:57 | 51.07651 | 18.04070 | 34785 ft | 482 kts | 66° |
| 2026-05-05 21:57 | 51.10326 | 18.13848 | 34784 ft | 482 kts | 67° |
| 2026-05-05 21:58 | 51.12992 | 18.23635 | 34784 ft | 482 kts | 67° |
| 2026-05-05 21:58 | 51.15630 | 18.33359 | 34788 ft | 482 kts | 67° |
| 2026-05-05 21:59 | 51.18279 | 18.43165 | 34787 ft | 482 kts | 66° |
| 2026-05-05 21:59 | 51.20919 | 18.52977 | 34792 ft | 481 kts | 67° |
| 2026-05-05 21:59 | 51.22229 | 18.57864 | 34522 ft | 476 kts | 67° |
| 2026-05-05 22:00 | 51.23523 | 18.62697 | 33903 ft | 474 kts | 67° |
| 2026-05-05 22:00 | 51.24816 | 18.67542 | 33090 ft | 474 kts | 67° |
| 2026-05-05 22:00 | 51.26103 | 18.72372 | 32435 ft | 471 kts | 67° |
| 2026-05-05 22:00 | 51.27377 | 18.77162 | 31803 ft | 467 kts | 67° |
| 2026-05-05 22:01 | 51.28639 | 18.81918 | 31220 ft | 463 kts | 67° |
| 2026-05-05 22:01 | 51.29891 | 18.86646 | 30601 ft | 460 kts | 67° |
| 2026-05-05 22:01 | 51.31133 | 18.91346 | 29993 ft | 458 kts | 67° |
| 2026-05-05 22:01 | 51.32364 | 18.96016 | 29337 ft | 455 kts | 67° |
| 2026-05-05 22:02 | 51.33587 | 19.00664 | 28712 ft | 451 kts | 68° |
| 2026-05-05 22:02 | 51.34794 | 19.05259 | 28115 ft | 447 kts | 68° |
| 2026-05-05 22:02 | 51.35990 | 19.09824 | 27566 ft | 443 kts | 68° |
| 2026-05-05 22:02 | 51.37175 | 19.14354 | 26989 ft | 439 kts | 68° |
| 2026-05-05 22:03 | 51.38351 | 19.18856 | 26415 ft | 436 kts | 68° |
| 2026-05-05 22:03 | 51.39514 | 19.23322 | 25850 ft | 434 kts | 68° |
| 2026-05-05 22:03 | 51.40670 | 19.27768 | 25266 ft | 431 kts | 68° |
| 2026-05-05 22:03 | 51.41820 | 19.32200 | 24727 ft | 430 kts | 68° |
| 2026-05-05 22:04 | 51.42962 | 19.36607 | 24144 ft | 428 kts | 68° |
| 2026-05-05 22:04 | 51.44101 | 19.41014 | 23554 ft | 427 kts | 68° |
| 2026-05-05 22:04 | 51.45236 | 19.45413 | 22902 ft | 426 kts | 68° |
| 2026-05-05 22:04 | 51.46361 | 19.49778 | 22369 ft | 422 kts | 68° |
| 2026-05-05 22:05 | 51.47474 | 19.54110 | 21820 ft | 418 kts | 68° |
| 2026-05-05 22:05 | 51.48578 | 19.58412 | 21368 ft | 412 kts | 68° |
| 2026-05-05 22:05 | 51.49659 | 19.62636 | 20891 ft | 407 kts | 69° |
| 2026-05-05 22:05 | 51.50717 | 19.66775 | 20335 ft | 405 kts | 69° |
| 2026-05-05 22:06 | 51.51779 | 19.70938 | 19860 ft | 401 kts | 69° |
| 2026-05-05 22:06 | 51.52830 | 19.75067 | 19330 ft | 399 kts | 69° |
| 2026-05-05 22:06 | 51.53872 | 19.79166 | 18872 ft | 394 kts | 69° |
| 2026-05-05 22:06 | 51.54903 | 19.83229 | 18354 ft | 392 kts | 69° |
| 2026-05-05 22:07 | 51.55925 | 19.87265 | 17870 ft | 388 kts | 69° |
| 2026-05-05 22:07 | 51.56958 | 19.91264 | 17231 ft | 387 kts | 68° |
| 2026-05-05 22:07 | 51.58053 | 19.95193 | 16700 ft | 384 kts | 66° |
| 2026-05-05 22:07 | 51.59223 | 19.99042 | 16138 ft | 382 kts | 64° |
| 2026-05-05 22:08 | 51.60454 | 20.02813 | 15566 ft | 380 kts | 63° |
| 2026-05-05 22:08 | 51.61702 | 20.06563 | 15030 ft | 378 kts | 63° |
| 2026-05-05 22:08 | 51.62525 | 20.09026 | 14655 ft | 377 kts | 63° |
| 2026-05-05 22:08 | 51.64184 | 20.13979 | 13963 ft | 374 kts | 63° |
| 2026-05-05 22:09 | 51.65000 | 20.16417 | 13587 ft | 374 kts | 63° |
| 2026-05-05 22:09 | 51.66226 | 20.20082 | 13050 ft | 367 kts | 63° |
| 2026-05-05 22:09 | 51.67429 | 20.23680 | 12118 ft | 363 kts | 64° |
| 2026-05-05 22:09 | 51.68623 | 20.27254 | 11214 ft | 361 kts | 64° |
| 2026-05-05 22:10 | 51.69789 | 20.30752 | 10661 ft | 348 kts | 64° |
| 2026-05-05 22:10 | 51.70910 | 20.34110 | 10364 ft | 329 kts | 64° |
| 2026-05-05 22:10 | 51.71954 | 20.37242 | 10258 ft | 306 kts | 64° |
| 2026-05-05 22:10 | 51.72942 | 20.40216 | 9909 ft | 301 kts | 64° |
| 2026-05-05 22:11 | 51.73940 | 20.43237 | 9354 ft | 308 kts | 64° |
| 2026-05-05 22:11 | 51.74946 | 20.46279 | 8943 ft | 307 kts | 64° |
| 2026-05-05 22:11 | 51.75953 | 20.49322 | 8519 ft | 306 kts | 64° |
| 2026-05-05 22:11 | 51.76950 | 20.52339 | 7984 ft | 303 kts | 64° |
| 2026-05-05 22:12 | 51.77936 | 20.55326 | 7416 ft | 298 kts | 64° |
| 2026-05-05 22:12 | 51.78902 | 20.58252 | 6977 ft | 294 kts | 63° |
| 2026-05-05 22:12 | 51.79864 | 20.61175 | 6538 ft | 296 kts | 63° |
| 2026-05-05 22:12 | 51.80832 | 20.64120 | 6129 ft | 296 kts | 63° |
| 2026-05-05 22:13 | 51.81799 | 20.67062 | 5673 ft | 297 kts | 63° |
| 2026-05-05 22:13 | 51.82767 | 20.70012 | 5219 ft | 297 kts | 63° |
| 2026-05-05 22:13 | 51.83731 | 20.72953 | 4691 ft | 293 kts | 63° |
| 2026-05-05 22:13 | 51.84678 | 20.75842 | 4255 ft | 292 kts | 63° |
| 2026-05-05 22:14 | 51.85630 | 20.78752 | 3794 ft | 294 kts | 63° |
| 2026-05-05 22:14 | 51.86586 | 20.81679 | 3355 ft | 296 kts | 63° |
| 2026-05-05 22:14 | 51.87545 | 20.84617 | 3044 ft | 292 kts | 63° |
| 2026-05-05 22:14 | 51.88484 | 20.87494 | 2977 ft | 287 kts | 63° |
| 2026-05-05 22:15 | 51.89414 | 20.90345 | 2974 ft | 286 kts | 63° |
| 2026-05-05 22:15 | 51.90342 | 20.93201 | 2969 ft | 286 kts | 63° |
| 2026-05-05 22:15 | 51.91270 | 20.96060 | 2975 ft | 288 kts | 62° |
| 2026-05-05 22:15 | 51.92207 | 20.98946 | 2975 ft | 289 kts | 63° |
| 2026-05-05 22:16 | 51.93140 | 21.01824 | 2973 ft | 289 kts | 63° |
| 2026-05-05 22:16 | 51.94065 | 21.04684 | 2964 ft | 281 kts | 62° |
| 2026-05-05 22:16 | 51.94949 | 21.07418 | 2959 ft | 266 kts | 63° |
| 2026-05-05 22:16 | 51.95799 | 21.09985 | 2974 ft | 251 kts | 56° |
| 2026-05-05 22:17 | 51.97074 | 21.11646 | 2970 ft | 227 kts | 13° |
| 2026-05-05 22:17 | 51.98583 | 21.11805 | 2982 ft | 215 kts | 348° |
| 2026-05-05 22:17 | 51.99975 | 21.11193 | 2975 ft | 209 kts | 329° |
| 2026-05-05 22:17 | 52.01248 | 21.10076 | 2977 ft | 208 kts | 324° |
| 2026-05-05 22:18 | 52.02522 | 21.08937 | 2975 ft | 209 kts | 325° |
| 2026-05-05 22:18 | 52.03810 | 21.07821 | 2922 ft | 210 kts | 326° |
| 2026-05-05 22:18 | 52.05091 | 21.06726 | 2676 ft | 206 kts | 326° |
| 2026-05-05 22:18 | 52.06339 | 21.05642 | 2396 ft | 201 kts | 325° |
| 2026-05-05 22:19 | 52.07543 | 21.04590 | 2145 ft | 192 kts | 327° |
| 2026-05-05 22:19 | 52.08688 | 21.03593 | 1873 ft | 180 kts | 329° |
| 2026-05-05 22:19 | 52.09760 | 21.02658 | 1645 ft | 171 kts | 330° |
| 2026-05-05 22:19 | 52.10767 | 21.01778 | 1439 ft | 156 kts | 334° |
| 2026-05-05 22:20 | 52.11690 | 21.00970 | 1245 ft | 148 kts | 335° |
| 2026-05-05 22:20 | 52.12589 | 21.00182 | 1042 ft | 146 kts | 335° |
| 2026-05-05 22:20 | 52.13472 | 20.99413 | 832 ft | 142 kts | 335° |
| 2026-05-05 22:20 | 52.14335 | 20.98665 | 601 ft | 138 kts | 335° |
| 2026-05-05 22:21 | 52.15176 | 20.97928 | 417 ft | 138 kts | 336° |
| 2026-05-05 22:21 | 52.16018 | 20.97198 | 352 ft | 132 kts | 334° |
| 2026-05-05 22:21 | 52.16579 | 20.96708 | 351 ft | 65 kts | 331° |
| 2026-05-05 22:21 | 52.16839 | 20.96521 | 351 ft | 31 kts | 351° |
| 2026-05-05 22:22 | 52.17013 | 20.96511 | 353 ft | 19 kts | 2° |
| 2026-05-05 22:22 | 52.17091 | 20.96615 | 354 ft | 14 kts | 91° |
| 2026-05-05 22:22 | 52.17040 | 20.96719 | 354 ft | 11 kts | 156° |
| 2026-05-05 22:22 | 52.16970 | 20.96769 | 353 ft | 10 kts | 156° |
| 2026-05-05 22:23 | 52.16909 | 20.96816 | 353 ft | 10 kts | 153° |
| 2026-05-05 22:23 | 52.16817 | 20.96894 | 355 ft | 19 kts | 152° |
| 2026-05-05 22:23 | 52.16704 | 20.96995 | 354 ft | 18 kts | 151° |
| 2026-05-05 22:23 | 52.16596 | 20.97092 | 355 ft | 17 kts | 151° |
| 2026-05-05 22:24 | 52.16494 | 20.97180 | 346 ft | 16 kts | 153° |
| 2026-05-05 22:24 | 52.16395 | 20.97263 | 352 ft | 18 kts | 152° |
| 2026-05-05 22:24 | 52.16276 | 20.97369 | 353 ft | 19 kts | 151° |
| 2026-05-05 22:24 | 52.16165 | 20.97469 | 353 ft | 18 kts | 151° |
| 2026-05-05 22:25 | 52.16058 | 20.97563 | 346 ft | 19 kts | 152° |
| 2026-05-05 22:25 | 52.15917 | 20.97685 | 351 ft | 27 kts | 152° |
| 2026-05-05 22:25 | 52.15747 | 20.97833 | 353 ft | 26 kts | 152° |
| 2026-05-05 22:25 | 52.15593 | 20.97970 | 352 ft | 24 kts | 151° |
| 2026-05-05 22:26 | 52.15468 | 20.98077 | 350 ft | 10 kts | 149° |
| 2026-05-05 22:26 | 52.15450 | 20.98166 | 356 ft | 8 kts | 77° |
| 2026-05-05 22:26 | 52.15468 | 20.98226 | 353 ft | 1 kts | 63° |
| 2026-05-05 22:26 | 52.15468 | 20.98229 | 356 ft | 0 kts | 63° |
| 2026-05-05 22:27 | 52.15470 | 20.98234 | 356 ft | 0 kts | 62° |